sensor_id;sensor_type;location;lat;lon;timestamp;P1;durP1;ratioP1;P2;durP2;ratioP2
70213;SDS011;60138;55.808;37.078;2023-07-30T00:01:16;16.42;;;11.18;;
70213;SDS011;60138;55.808;37.078;2023-07-30T00:03:42;21.93;;;12.87;;
70213;SDS011;60138;55.808;37.078;2023-07-30T00:06:08;16.30;;;11.30;;
70213;SDS011;60138;55.808;37.078;2023-07-30T00:08:33;18.20;;;11.80;;
70213;SDS011;60138;55.808;37.078;2023-07-30T00:10:59;20.25;;;12.82;;
70213;SDS011;60138;55.808;37.078;2023-07-30T00:13:25;23.42;;;12.15;;
70213;SDS011;60138;55.808;37.078;2023-07-30T00:15:51;21.57;;;12.20;;
70213;SDS011;60138;55.808;37.078;2023-07-30T00:18:17;15.75;;;11.35;;
70213;SDS011;60138;55.808;37.078;2023-07-30T00:20:42;18.27;;;12.10;;
70213;SDS011;60138;55.808;37.078;2023-07-30T00:23:08;25.33;;;12.77;;
70213;SDS011;60138;55.808;37.078;2023-07-30T00:25:34;23.20;;;12.75;;
70213;SDS011;60138;55.808;37.078;2023-07-30T00:28:00;22.35;;;13.48;;
70213;SDS011;60138;55.808;37.078;2023-07-30T00:30:26;22.80;;;11.23;;
70213;SDS011;60138;55.808;37.078;2023-07-30T00:32:52;23.23;;;11.82;;
70213;SDS011;60138;55.808;37.078;2023-07-30T00:35:18;29.87;;;12.20;;
70213;SDS011;60138;55.808;37.078;2023-07-30T00:37:44;27.27;;;10.57;;
70213;SDS011;60138;55.808;37.078;2023-07-30T00:40:09;22.23;;;11.00;;
70213;SDS011;60138;55.808;37.078;2023-07-30T00:42:35;18.38;;;10.80;;
70213;SDS011;60138;55.808;37.078;2023-07-30T00:45:01;18.90;;;10.60;;
70213;SDS011;60138;55.808;37.078;2023-07-30T00:47:30;15.45;;;11.18;;
70213;SDS011;60138;55.808;37.078;2023-07-30T00:49:57;22.17;;;11.50;;
70213;SDS011;60138;55.808;37.078;2023-07-30T00:52:23;18.55;;;11.30;;
70213;SDS011;60138;55.808;37.078;2023-07-30T00:54:52;21.85;;;11.27;;
70213;SDS011;60138;55.808;37.078;2023-07-30T00:57:20;16.45;;;9.80;;
70213;SDS011;60138;55.808;37.078;2023-07-30T00:59:46;17.48;;;10.23;;
70213;SDS011;60138;55.808;37.078;2023-07-30T01:02:13;13.20;;;9.60;;
70213;SDS011;60138;55.808;37.078;2023-07-30T01:04:40;22.40;;;10.45;;
70213;SDS011;60138;55.808;37.078;2023-07-30T01:07:07;19.33;;;11.57;;
70213;SDS011;60138;55.808;37.078;2023-07-30T01:09:33;17.02;;;10.27;;
70213;SDS011;60138;55.808;37.078;2023-07-30T01:11:59;15.00;;;10.50;;
70213;SDS011;60138;55.808;37.078;2023-07-30T01:14:28;15.80;;;9.75;;
70213;SDS011;60138;55.808;37.078;2023-07-30T01:16:55;21.95;;;11.27;;
70213;SDS011;60138;55.808;37.078;2023-07-30T01:19:21;21.23;;;10.82;;
70213;SDS011;60138;55.808;37.078;2023-07-30T01:21:46;17.87;;;12.30;;
70213;SDS011;60138;55.808;37.078;2023-07-30T01:24:12;16.95;;;10.88;;
70213;SDS011;60138;55.808;37.078;2023-07-30T01:26:44;17.73;;;13.30;;
70213;SDS011;60138;55.808;37.078;2023-07-30T01:29:21;17.05;;;11.90;;
70213;SDS011;60138;55.808;37.078;2023-07-30T01:31:52;17.10;;;10.40;;
70213;SDS011;60138;55.808;37.078;2023-07-30T01:34:27;19.90;;;12.52;;
70213;SDS011;60138;55.808;37.078;2023-07-30T01:36:53;17.03;;;10.40;;
70213;SDS011;60138;55.808;37.078;2023-07-30T01:39:21;22.80;;;12.20;;
70213;SDS011;60138;55.808;37.078;2023-07-30T01:41:47;18.75;;;11.93;;
70213;SDS011;60138;55.808;37.078;2023-07-30T01:44:13;17.02;;;11.55;;
70213;SDS011;60138;55.808;37.078;2023-07-30T01:46:38;21.25;;;11.45;;
70213;SDS011;60138;55.808;37.078;2023-07-30T01:49:04;18.93;;;10.27;;
70213;SDS011;60138;55.808;37.078;2023-07-30T01:51:30;24.08;;;12.50;;
70213;SDS011;60138;55.808;37.078;2023-07-30T01:53:56;16.65;;;10.93;;
70213;SDS011;60138;55.808;37.078;2023-07-30T01:56:21;17.25;;;11.05;;
70213;SDS011;60138;55.808;37.078;2023-07-30T01:58:47;12.02;;;9.52;;
70213;SDS011;60138;55.808;37.078;2023-07-30T02:01:13;14.38;;;9.57;;
70213;SDS011;60138;55.808;37.078;2023-07-30T02:03:38;13.65;;;9.48;;
70213;SDS011;60138;55.808;37.078;2023-07-30T02:06:04;14.80;;;8.70;;
70213;SDS011;60138;55.808;37.078;2023-07-30T02:08:30;15.77;;;10.55;;
70213;SDS011;60138;55.808;37.078;2023-07-30T02:10:59;13.57;;;8.83;;
70213;SDS011;60138;55.808;37.078;2023-07-30T02:13:26;14.45;;;8.25;;
70213;SDS011;60138;55.808;37.078;2023-07-30T02:15:52;18.67;;;9.95;;
70213;SDS011;60138;55.808;37.078;2023-07-30T02:18:18;14.02;;;8.88;;
70213;SDS011;60138;55.808;37.078;2023-07-30T02:20:51;14.17;;;8.13;;
70213;SDS011;60138;55.808;37.078;2023-07-30T02:23:17;14.45;;;8.95;;
70213;SDS011;60138;55.808;37.078;2023-07-30T02:25:43;13.30;;;7.95;;
70213;SDS011;60138;55.808;37.078;2023-07-30T02:28:09;14.70;;;9.43;;
70213;SDS011;60138;55.808;37.078;2023-07-30T02:30:36;12.63;;;8.18;;
70213;SDS011;60138;55.808;37.078;2023-07-30T02:33:02;11.53;;;8.00;;
70213;SDS011;60138;55.808;37.078;2023-07-30T02:35:27;11.85;;;8.30;;
70213;SDS011;60138;55.808;37.078;2023-07-30T02:37:53;13.93;;;8.60;;
70213;SDS011;60138;55.808;37.078;2023-07-30T02:40:19;11.98;;;8.68;;
70213;SDS011;60138;55.808;37.078;2023-07-30T02:42:46;11.10;;;7.38;;
70213;SDS011;60138;55.808;37.078;2023-07-30T02:45:12;13.73;;;7.63;;
70213;SDS011;60138;55.808;37.078;2023-07-30T02:47:38;12.43;;;7.40;;
70213;SDS011;60138;55.808;37.078;2023-07-30T02:50:04;12.00;;;7.32;;
70213;SDS011;60138;55.808;37.078;2023-07-30T02:52:30;10.20;;;7.77;;
70213;SDS011;60138;55.808;37.078;2023-07-30T02:54:56;11.40;;;7.90;;
70213;SDS011;60138;55.808;37.078;2023-07-30T02:57:22;10.98;;;8.07;;
70213;SDS011;60138;55.808;37.078;2023-07-30T02:59:48;13.35;;;8.95;;
70213;SDS011;60138;55.808;37.078;2023-07-30T03:02:13;13.20;;;8.93;;
70213;SDS011;60138;55.808;37.078;2023-07-30T03:04:39;15.77;;;9.27;;
70213;SDS011;60138;55.808;37.078;2023-07-30T03:07:06;14.82;;;9.20;;
70213;SDS011;60138;55.808;37.078;2023-07-30T03:09:31;15.15;;;8.93;;
70213;SDS011;60138;55.808;37.078;2023-07-30T03:11:58;12.57;;;7.93;;
70213;SDS011;60138;55.808;37.078;2023-07-30T03:14:24;10.85;;;8.25;;
70213;SDS011;60138;55.808;37.078;2023-07-30T03:16:50;18.57;;;7.80;;
70213;SDS011;60138;55.808;37.078;2023-07-30T03:19:16;12.43;;;7.32;;
70213;SDS011;60138;55.808;37.078;2023-07-30T03:21:42;11.70;;;7.60;;
70213;SDS011;60138;55.808;37.078;2023-07-30T03:24:07;13.15;;;7.75;;
70213;SDS011;60138;55.808;37.078;2023-07-30T03:26:34;8.43;;;6.55;;
70213;SDS011;60138;55.808;37.078;2023-07-30T03:28:59;10.97;;;7.77;;
70213;SDS011;60138;55.808;37.078;2023-07-30T03:31:26;9.75;;;6.72;;
70213;SDS011;60138;55.808;37.078;2023-07-30T03:33:52;10.75;;;7.20;;
70213;SDS011;60138;55.808;37.078;2023-07-30T03:36:17;13.00;;;7.83;;
70213;SDS011;60138;55.808;37.078;2023-07-30T03:38:43;11.23;;;6.93;;
70213;SDS011;60138;55.808;37.078;2023-07-30T03:41:12;13.25;;;7.88;;
70213;SDS011;60138;55.808;37.078;2023-07-30T03:43:38;12.03;;;6.67;;
70213;SDS011;60138;55.808;37.078;2023-07-30T03:46:04;10.60;;;7.05;;
70213;SDS011;60138;55.808;37.078;2023-07-30T03:48:30;10.30;;;6.90;;
70213;SDS011;60138;55.808;37.078;2023-07-30T03:50:56;11.60;;;7.10;;
70213;SDS011;60138;55.808;37.078;2023-07-30T03:53:22;11.30;;;7.80;;
70213;SDS011;60138;55.808;37.078;2023-07-30T03:55:48;9.93;;;7.05;;
70213;SDS011;60138;55.808;37.078;2023-07-30T03:58:14;11.70;;;5.82;;
70213;SDS011;60138;55.808;37.078;2023-07-30T04:00:40;8.57;;;6.20;;
70213;SDS011;60138;55.808;37.078;2023-07-30T04:03:06;10.85;;;6.05;;
70213;SDS011;60138;55.808;37.078;2023-07-30T04:05:32;13.65;;;6.38;;
70213;SDS011;60138;55.808;37.078;2023-07-30T04:07:59;7.68;;;5.95;;
70213;SDS011;60138;55.808;37.078;2023-07-30T04:10:24;12.07;;;5.80;;
70213;SDS011;60138;55.808;37.078;2023-07-30T04:12:50;10.10;;;6.07;;
70213;SDS011;60138;55.808;37.078;2023-07-30T04:15:16;12.37;;;6.40;;
70213;SDS011;60138;55.808;37.078;2023-07-30T04:17:42;11.60;;;5.82;;
70213;SDS011;60138;55.808;37.078;2023-07-30T04:20:08;8.77;;;6.17;;
70213;SDS011;60138;55.808;37.078;2023-07-30T04:22:35;11.07;;;5.85;;
70213;SDS011;60138;55.808;37.078;2023-07-30T04:25:01;7.85;;;4.78;;
70213;SDS011;60138;55.808;37.078;2023-07-30T04:27:30;8.50;;;5.85;;
70213;SDS011;60138;55.808;37.078;2023-07-30T04:29:55;9.37;;;5.37;;
70213;SDS011;60138;55.808;37.078;2023-07-30T04:32:21;9.27;;;5.30;;
70213;SDS011;60138;55.808;37.078;2023-07-30T04:34:47;9.68;;;5.38;;
70213;SDS011;60138;55.808;37.078;2023-07-30T04:37:13;8.43;;;5.25;;
70213;SDS011;60138;55.808;37.078;2023-07-30T04:39:39;9.45;;;4.90;;
70213;SDS011;60138;55.808;37.078;2023-07-30T04:42:05;13.47;;;4.47;;
70213;SDS011;60138;55.808;37.078;2023-07-30T04:44:31;5.90;;;4.30;;
70213;SDS011;60138;55.808;37.078;2023-07-30T04:47:04;8.02;;;4.53;;
70213;SDS011;60138;55.808;37.078;2023-07-30T04:49:30;7.05;;;4.20;;
70213;SDS011;60138;55.808;37.078;2023-07-30T04:51:55;5.87;;;4.80;;
70213;SDS011;60138;55.808;37.078;2023-07-30T04:54:21;9.15;;;4.50;;
70213;SDS011;60138;55.808;37.078;2023-07-30T04:56:47;7.43;;;4.07;;
70213;SDS011;60138;55.808;37.078;2023-07-30T04:59:13;8.27;;;4.22;;
70213;SDS011;60138;55.808;37.078;2023-07-30T05:01:39;7.20;;;4.30;;
70213;SDS011;60138;55.808;37.078;2023-07-30T05:04:04;9.43;;;4.73;;
70213;SDS011;60138;55.808;37.078;2023-07-30T05:06:30;10.02;;;4.10;;
70213;SDS011;60138;55.808;37.078;2023-07-30T05:08:56;7.97;;;3.60;;
70213;SDS011;60138;55.808;37.078;2023-07-30T05:11:22;6.93;;;4.13;;
70213;SDS011;60138;55.808;37.078;2023-07-30T05:13:47;10.27;;;4.80;;
70213;SDS011;60138;55.808;37.078;2023-07-30T05:16:13;6.50;;;4.03;;
70213;SDS011;60138;55.808;37.078;2023-07-30T05:18:39;6.38;;;4.38;;
70213;SDS011;60138;55.808;37.078;2023-07-30T05:21:05;8.52;;;3.75;;
70213;SDS011;60138;55.808;37.078;2023-07-30T05:23:30;5.68;;;3.45;;
70213;SDS011;60138;55.808;37.078;2023-07-30T05:25:56;14.68;;;6.53;;
70213;SDS011;60138;55.808;37.078;2023-07-30T05:28:22;7.93;;;4.53;;
70213;SDS011;60138;55.808;37.078;2023-07-30T05:30:47;7.50;;;3.57;;
70213;SDS011;60138;55.808;37.078;2023-07-30T05:33:13;8.88;;;4.90;;
70213;SDS011;60138;55.808;37.078;2023-07-30T05:35:39;8.20;;;4.13;;
70213;SDS011;60138;55.808;37.078;2023-07-30T05:38:05;13.88;;;5.03;;
70213;SDS011;60138;55.808;37.078;2023-07-30T05:40:30;12.47;;;4.90;;
70213;SDS011;60138;55.808;37.078;2023-07-30T05:42:56;8.35;;;4.10;;
70213;SDS011;60138;55.808;37.078;2023-07-30T05:45:22;9.90;;;3.40;;
70213;SDS011;60138;55.808;37.078;2023-07-30T05:47:48;6.13;;;3.55;;
70213;SDS011;60138;55.808;37.078;2023-07-30T05:50:13;9.07;;;3.80;;
70213;SDS011;60138;55.808;37.078;2023-07-30T05:52:39;11.27;;;3.67;;
70213;SDS011;60138;55.808;37.078;2023-07-30T05:55:05;12.90;;;4.13;;
70213;SDS011;60138;55.808;37.078;2023-07-30T05:57:31;9.18;;;3.75;;
70213;SDS011;60138;55.808;37.078;2023-07-30T05:59:57;8.90;;;3.95;;
70213;SDS011;60138;55.808;37.078;2023-07-30T06:02:22;11.87;;;4.10;;
70213;SDS011;60138;55.808;37.078;2023-07-30T06:04:48;10.43;;;4.18;;
70213;SDS011;60138;55.808;37.078;2023-07-30T06:07:14;5.47;;;2.93;;
70213;SDS011;60138;55.808;37.078;2023-07-30T06:09:40;7.55;;;3.20;;
70213;SDS011;60138;55.808;37.078;2023-07-30T06:12:05;10.30;;;3.50;;
70213;SDS011;60138;55.808;37.078;2023-07-30T06:14:31;8.30;;;4.47;;
70213;SDS011;60138;55.808;37.078;2023-07-30T06:16:57;8.55;;;3.58;;
70213;SDS011;60138;55.808;37.078;2023-07-30T06:19:23;6.32;;;3.50;;
70213;SDS011;60138;55.808;37.078;2023-07-30T06:21:48;6.03;;;3.67;;
70213;SDS011;60138;55.808;37.078;2023-07-30T06:24:14;5.75;;;3.38;;
70213;SDS011;60138;55.808;37.078;2023-07-30T06:26:40;6.97;;;3.23;;
70213;SDS011;60138;55.808;37.078;2023-07-30T06:29:05;10.23;;;4.00;;
70213;SDS011;60138;55.808;37.078;2023-07-30T06:31:31;7.37;;;3.17;;
70213;SDS011;60138;55.808;37.078;2023-07-30T06:33:57;14.50;;;4.38;;
70213;SDS011;60138;55.808;37.078;2023-07-30T06:36:23;6.25;;;2.80;;
70213;SDS011;60138;55.808;37.078;2023-07-30T06:38:48;11.53;;;4.10;;
70213;SDS011;60138;55.808;37.078;2023-07-30T06:41:14;9.80;;;4.20;;
70213;SDS011;60138;55.808;37.078;2023-07-30T06:43:40;5.47;;;3.30;;
70213;SDS011;60138;55.808;37.078;2023-07-30T06:46:06;8.50;;;3.20;;
70213;SDS011;60138;55.808;37.078;2023-07-30T06:48:31;6.20;;;2.33;;
70213;SDS011;60138;55.808;37.078;2023-07-30T06:50:57;5.73;;;2.67;;
70213;SDS011;60138;55.808;37.078;2023-07-30T06:53:23;4.88;;;3.10;;
70213;SDS011;60138;55.808;37.078;2023-07-30T06:55:48;11.43;;;3.40;;
70213;SDS011;60138;55.808;37.078;2023-07-30T06:58:14;9.18;;;3.25;;
70213;SDS011;60138;55.808;37.078;2023-07-30T07:00:40;6.15;;;3.25;;
70213;SDS011;60138;55.808;37.078;2023-07-30T07:03:06;7.10;;;2.97;;
70213;SDS011;60138;55.808;37.078;2023-07-30T07:05:32;9.32;;;3.10;;
70213;SDS011;60138;55.808;37.078;2023-07-30T07:07:57;7.10;;;3.13;;
70213;SDS011;60138;55.808;37.078;2023-07-30T07:10:23;6.72;;;3.55;;
70213;SDS011;60138;55.808;37.078;2023-07-30T07:12:49;7.40;;;3.33;;
70213;SDS011;60138;55.808;37.078;2023-07-30T07:15:16;5.07;;;3.53;;
70213;SDS011;60138;55.808;37.078;2023-07-30T07:17:42;6.55;;;2.95;;
70213;SDS011;60138;55.808;37.078;2023-07-30T07:20:07;9.68;;;3.00;;
70213;SDS011;60138;55.808;37.078;2023-07-30T07:22:33;8.55;;;2.63;;
70213;SDS011;60138;55.808;37.078;2023-07-30T07:25:00;10.10;;;3.28;;
70213;SDS011;60138;55.808;37.078;2023-07-30T07:27:25;7.50;;;2.70;;
70213;SDS011;60138;55.808;37.078;2023-07-30T07:29:51;8.07;;;2.70;;
70213;SDS011;60138;55.808;37.078;2023-07-30T07:32:18;6.10;;;2.80;;
70213;SDS011;60138;55.808;37.078;2023-07-30T07:34:50;4.97;;;2.63;;
70213;SDS011;60138;55.808;37.078;2023-07-30T07:37:16;4.30;;;2.42;;
70213;SDS011;60138;55.808;37.078;2023-07-30T07:39:42;8.02;;;3.10;;
70213;SDS011;60138;55.808;37.078;2023-07-30T07:42:08;5.95;;;2.75;;
70213;SDS011;60138;55.808;37.078;2023-07-30T07:44:34;4.63;;;2.58;;
70213;SDS011;60138;55.808;37.078;2023-07-30T07:47:00;7.03;;;2.57;;
70213;SDS011;60138;55.808;37.078;2023-07-30T07:49:25;5.28;;;2.42;;
70213;SDS011;60138;55.808;37.078;2023-07-30T07:51:51;6.43;;;3.07;;
70213;SDS011;60138;55.808;37.078;2023-07-30T07:54:17;8.73;;;2.53;;
70213;SDS011;60138;55.808;37.078;2023-07-30T07:56:42;7.47;;;2.70;;
70213;SDS011;60138;55.808;37.078;2023-07-30T07:59:08;5.40;;;2.42;;
70213;SDS011;60138;55.808;37.078;2023-07-30T08:01:34;5.37;;;2.37;;
70213;SDS011;60138;55.808;37.078;2023-07-30T08:04:00;4.80;;;2.40;;
70213;SDS011;60138;55.808;37.078;2023-07-30T08:06:25;12.10;;;3.43;;
70213;SDS011;60138;55.808;37.078;2023-07-30T08:08:51;18.33;;;4.72;;
70213;SDS011;60138;55.808;37.078;2023-07-30T08:11:17;7.30;;;3.23;;
70213;SDS011;60138;55.808;37.078;2023-07-30T08:13:43;6.88;;;2.20;;
70213;SDS011;60138;55.808;37.078;2023-07-30T08:16:08;11.57;;;3.07;;
70213;SDS011;60138;55.808;37.078;2023-07-30T08:18:34;7.97;;;3.50;;
70213;SDS011;60138;55.808;37.078;2023-07-30T08:21:00;7.80;;;2.60;;
70213;SDS011;60138;55.808;37.078;2023-07-30T08:23:26;7.15;;;2.42;;
70213;SDS011;60138;55.808;37.078;2023-07-30T08:25:52;4.10;;;2.10;;
70213;SDS011;60138;55.808;37.078;2023-07-30T08:28:18;5.30;;;3.00;;
70213;SDS011;60138;55.808;37.078;2023-07-30T08:30:44;4.57;;;2.30;;
70213;SDS011;60138;55.808;37.078;2023-07-30T08:33:10;5.40;;;2.45;;
70213;SDS011;60138;55.808;37.078;2023-07-30T08:35:35;6.17;;;2.53;;
70213;SDS011;60138;55.808;37.078;2023-07-30T08:38:01;5.53;;;2.47;;
70213;SDS011;60138;55.808;37.078;2023-07-30T08:40:27;14.25;;;5.10;;
70213;SDS011;60138;55.808;37.078;2023-07-30T08:42:53;11.80;;;2.30;;
70213;SDS011;60138;55.808;37.078;2023-07-30T08:45:19;4.80;;;2.55;;
70213;SDS011;60138;55.808;37.078;2023-07-30T08:47:45;11.05;;;2.97;;
70213;SDS011;60138;55.808;37.078;2023-07-30T08:50:12;10.00;;;3.17;;
70213;SDS011;60138;55.808;37.078;2023-07-30T08:52:39;9.27;;;3.37;;
70213;SDS011;60138;55.808;37.078;2023-07-30T08:55:06;5.38;;;2.63;;
70213;SDS011;60138;55.808;37.078;2023-07-30T08:57:33;8.23;;;2.53;;
70213;SDS011;60138;55.808;37.078;2023-07-30T09:00:03;3.63;;;1.90;;
70213;SDS011;60138;55.808;37.078;2023-07-30T09:02:43;7.22;;;2.40;;
70213;SDS011;60138;55.808;37.078;2023-07-30T09:05:12;14.27;;;2.90;;
70213;SDS011;60138;55.808;37.078;2023-07-30T09:07:39;22.42;;;5.22;;
70213;SDS011;60138;55.808;37.078;2023-07-30T09:10:05;8.35;;;3.75;;
70213;SDS011;60138;55.808;37.078;2023-07-30T09:12:32;9.07;;;3.63;;
70213;SDS011;60138;55.808;37.078;2023-07-30T09:15:01;4.50;;;2.47;;
70213;SDS011;60138;55.808;37.078;2023-07-30T09:17:30;11.30;;;3.80;;
70213;SDS011;60138;55.808;37.078;2023-07-30T09:19:58;5.85;;;2.40;;
70213;SDS011;60138;55.808;37.078;2023-07-30T09:22:28;4.35;;;2.15;;
70213;SDS011;60138;55.808;37.078;2023-07-30T09:24:55;3.90;;;1.90;;
70213;SDS011;60138;55.808;37.078;2023-07-30T09:27:22;3.60;;;2.22;;
70213;SDS011;60138;55.808;37.078;2023-07-30T09:29:52;11.73;;;4.50;;
70213;SDS011;60138;55.808;37.078;2023-07-30T09:32:19;11.00;;;2.00;;
70213;SDS011;60138;55.808;37.078;2023-07-30T09:34:46;5.65;;;3.10;;
70213;SDS011;60138;55.808;37.078;2023-07-30T09:37:12;9.20;;;2.73;;
70213;SDS011;60138;55.808;37.078;2023-07-30T09:39:38;6.47;;;2.40;;
70213;SDS011;60138;55.808;37.078;2023-07-30T09:42:04;10.63;;;3.70;;
70213;SDS011;60138;55.808;37.078;2023-07-30T09:44:34;6.70;;;2.25;;
70213;SDS011;60138;55.808;37.078;2023-07-30T09:47:02;6.50;;;2.10;;
70213;SDS011;60138;55.808;37.078;2023-07-30T09:49:28;8.98;;;3.22;;
70213;SDS011;60138;55.808;37.078;2023-07-30T09:51:54;4.20;;;2.08;;
70213;SDS011;60138;55.808;37.078;2023-07-30T09:54:20;4.43;;;2.67;;
70213;SDS011;60138;55.808;37.078;2023-07-30T09:56:45;4.03;;;1.90;;
70213;SDS011;60138;55.808;37.078;2023-07-30T09:59:11;4.37;;;2.63;;
70213;SDS011;60138;55.808;37.078;2023-07-30T10:01:45;9.27;;;3.20;;
70213;SDS011;60138;55.808;37.078;2023-07-30T10:04:12;9.40;;;3.33;;
70213;SDS011;60138;55.808;37.078;2023-07-30T10:06:43;24.15;;;6.28;;
70213;SDS011;60138;55.808;37.078;2023-07-30T10:09:14;8.70;;;2.97;;
70213;SDS011;60138;55.808;37.078;2023-07-30T10:11:44;7.57;;;2.10;;
70213;SDS011;60138;55.808;37.078;2023-07-30T10:14:11;9.65;;;2.83;;
70213;SDS011;60138;55.808;37.078;2023-07-30T10:16:38;7.07;;;2.13;;
70213;SDS011;60138;55.808;37.078;2023-07-30T10:19:04;10.65;;;2.60;;
70213;SDS011;60138;55.808;37.078;2023-07-30T10:21:31;10.65;;;3.17;;
70213;SDS011;60138;55.808;37.078;2023-07-30T10:23:59;12.03;;;3.17;;
70213;SDS011;60138;55.808;37.078;2023-07-30T10:26:30;12.00;;;4.70;;
70213;SDS011;60138;55.808;37.078;2023-07-30T10:29:10;7.50;;;2.60;;
70213;SDS011;60138;55.808;37.078;2023-07-30T10:31:43;11.77;;;3.30;;
70213;SDS011;60138;55.808;37.078;2023-07-30T10:34:14;6.97;;;3.17;;
70213;SDS011;60138;55.808;37.078;2023-07-30T10:36:40;10.93;;;2.87;;
70213;SDS011;60138;55.808;37.078;2023-07-30T10:41:36;4.90;;;1.70;;
70213;SDS011;60138;55.808;37.078;2023-07-30T10:44:02;5.93;;;2.20;;
70213;SDS011;60138;55.808;37.078;2023-07-30T10:46:28;11.63;;;2.88;;
70213;SDS011;60138;55.808;37.078;2023-07-30T10:48:54;6.85;;;2.13;;
70213;SDS011;60138;55.808;37.078;2023-07-30T10:51:20;8.10;;;2.20;;
70213;SDS011;60138;55.808;37.078;2023-07-30T10:53:47;7.00;;;2.70;;
70213;SDS011;60138;55.808;37.078;2023-07-30T10:56:20;12.30;;;2.92;;
70213;SDS011;60138;55.808;37.078;2023-07-30T10:58:51;10.05;;;2.55;;
70213;SDS011;60138;55.808;37.078;2023-07-30T11:01:18;5.18;;;2.10;;
70213;SDS011;60138;55.808;37.078;2023-07-30T11:03:48;5.33;;;1.93;;
70213;SDS011;60138;55.808;37.078;2023-07-30T11:06:14;4.60;;;1.90;;
70213;SDS011;60138;55.808;37.078;2023-07-30T11:08:46;4.50;;;1.92;;
70213;SDS011;60138;55.808;37.078;2023-07-30T11:11:12;6.33;;;2.30;;
70213;SDS011;60138;55.808;37.078;2023-07-30T11:13:46;9.02;;;2.10;;
70213;SDS011;60138;55.808;37.078;2023-07-30T11:16:13;14.88;;;3.95;;
70213;SDS011;60138;55.808;37.078;2023-07-30T11:18:39;18.60;;;3.20;;
70213;SDS011;60138;55.808;37.078;2023-07-30T11:21:09;15.88;;;3.40;;
70213;SDS011;60138;55.808;37.078;2023-07-30T11:23:36;23.53;;;3.57;;
70213;SDS011;60138;55.808;37.078;2023-07-30T11:26:05;11.43;;;2.50;;
70213;SDS011;60138;55.808;37.078;2023-07-30T11:28:33;9.98;;;2.95;;
70213;SDS011;60138;55.808;37.078;2023-07-30T11:31:05;4.50;;;1.60;;
70213;SDS011;60138;55.808;37.078;2023-07-30T11:33:36;2.80;;;1.90;;
70213;SDS011;60138;55.808;37.078;2023-07-30T11:36:04;7.53;;;2.17;;
70213;SDS011;60138;55.808;37.078;2023-07-30T11:38:31;12.10;;;2.65;;
70213;SDS011;60138;55.808;37.078;2023-07-30T11:40:57;6.03;;;2.30;;
70213;SDS011;60138;55.808;37.078;2023-07-30T11:43:23;6.47;;;1.90;;
70213;SDS011;60138;55.808;37.078;2023-07-30T11:46:05;5.65;;;2.30;;
70213;SDS011;60138;55.808;37.078;2023-07-30T11:48:42;13.27;;;2.93;;
70213;SDS011;60138;55.808;37.078;2023-07-30T11:53:58;33.55;;;9.13;;
70213;SDS011;60138;55.808;37.078;2023-07-30T11:56:26;12.18;;;4.18;;
70213;SDS011;60138;55.808;37.078;2023-07-30T11:58:57;12.93;;;2.80;;
70213;SDS011;60138;55.808;37.078;2023-07-30T12:01:25;12.73;;;2.73;;
70213;SDS011;60138;55.808;37.078;2023-07-30T12:03:58;19.10;;;5.38;;
70213;SDS011;60138;55.808;37.078;2023-07-30T12:06:37;15.15;;;3.05;;
70213;SDS011;60138;55.808;37.078;2023-07-30T12:09:14;7.10;;;2.47;;
70213;SDS011;60138;55.808;37.078;2023-07-30T12:11:46;13.23;;;2.60;;
70213;SDS011;60138;55.808;37.078;2023-07-30T12:14:23;6.90;;;1.70;;
70213;SDS011;60138;55.808;37.078;2023-07-30T12:16:51;5.00;;;1.40;;
70213;SDS011;60138;55.808;37.078;2023-07-30T12:19:17;4.75;;;1.67;;
70213;SDS011;60138;55.808;37.078;2023-07-30T12:21:42;3.23;;;1.50;;
70213;SDS011;60138;55.808;37.078;2023-07-30T12:24:10;8.93;;;1.35;;
70213;SDS011;60138;55.808;37.078;2023-07-30T12:26:35;5.38;;;1.45;;
70213;SDS011;60138;55.808;37.078;2023-07-30T12:29:01;9.50;;;2.40;;
70213;SDS011;60138;55.808;37.078;2023-07-30T12:31:27;8.88;;;2.00;;
70213;SDS011;60138;55.808;37.078;2023-07-30T12:33:52;3.30;;;2.00;;
70213;SDS011;60138;55.808;37.078;2023-07-30T12:36:18;17.00;;;3.10;;
70213;SDS011;60138;55.808;37.078;2023-07-30T12:38:44;10.57;;;2.77;;
70213;SDS011;60138;55.808;37.078;2023-07-30T12:41:09;8.27;;;3.03;;
70213;SDS011;60138;55.808;37.078;2023-07-30T12:43:35;8.87;;;3.60;;
70213;SDS011;60138;55.808;37.078;2023-07-30T12:46:01;9.93;;;3.60;;
70213;SDS011;60138;55.808;37.078;2023-07-30T12:48:27;27.80;;;3.92;;
70213;SDS011;60138;55.808;37.078;2023-07-30T12:50:53;21.13;;;4.07;;
70213;SDS011;60138;55.808;37.078;2023-07-30T12:53:18;9.77;;;2.03;;
70213;SDS011;60138;55.808;37.078;2023-07-30T12:55:44;13.03;;;6.50;;
70213;SDS011;60138;55.808;37.078;2023-07-30T12:58:10;5.75;;;2.83;;
70213;SDS011;60138;55.808;37.078;2023-07-30T13:00:36;4.77;;;1.47;;
70213;SDS011;60138;55.808;37.078;2023-07-30T13:03:01;5.03;;;1.10;;
70213;SDS011;60138;55.808;37.078;2023-07-30T13:05:28;6.53;;;1.75;;
70213;SDS011;60138;55.808;37.078;2023-07-30T13:07:54;4.45;;;1.70;;
70213;SDS011;60138;55.808;37.078;2023-07-30T13:10:20;6.63;;;1.43;;
70213;SDS011;60138;55.808;37.078;2023-07-30T13:12:46;6.32;;;1.90;;
70213;SDS011;60138;55.808;37.078;2023-07-30T13:15:11;5.23;;;2.10;;
70213;SDS011;60138;55.808;37.078;2023-07-30T13:17:37;4.57;;;1.67;;
70213;SDS011;60138;55.808;37.078;2023-07-30T13:20:03;5.82;;;2.08;;
70213;SDS011;60138;55.808;37.078;2023-07-30T13:22:30;2.92;;;1.60;;
70213;SDS011;60138;55.808;37.078;2023-07-30T13:24:56;7.87;;;1.93;;
70213;SDS011;60138;55.808;37.078;2023-07-30T13:27:21;4.95;;;1.63;;
70213;SDS011;60138;55.808;37.078;2023-07-30T13:29:47;7.03;;;2.23;;
70213;SDS011;60138;55.808;37.078;2023-07-30T13:32:13;6.38;;;1.42;;
70213;SDS011;60138;55.808;37.078;2023-07-30T13:34:39;7.10;;;1.77;;
70213;SDS011;60138;55.808;37.078;2023-07-30T13:37:05;9.20;;;2.08;;
70213;SDS011;60138;55.808;37.078;2023-07-30T13:39:30;7.30;;;1.73;;
70213;SDS011;60138;55.808;37.078;2023-07-30T13:41:56;3.90;;;1.40;;
70213;SDS011;60138;55.808;37.078;2023-07-30T13:44:22;6.67;;;1.70;;
70213;SDS011;60138;55.808;37.078;2023-07-30T13:46:47;2.60;;;1.20;;
70213;SDS011;60138;55.808;37.078;2023-07-30T13:49:13;6.47;;;1.10;;
70213;SDS011;60138;55.808;37.078;2023-07-30T13:51:39;7.10;;;1.60;;
70213;SDS011;60138;55.808;37.078;2023-07-30T13:54:05;9.57;;;1.95;;
70213;SDS011;60138;55.808;37.078;2023-07-30T13:56:31;3.80;;;1.77;;
70213;SDS011;60138;55.808;37.078;2023-07-30T13:58:56;5.83;;;1.93;;
70213;SDS011;60138;55.808;37.078;2023-07-30T14:01:22;8.88;;;2.10;;
70213;SDS011;60138;55.808;37.078;2023-07-30T14:03:48;3.23;;;1.10;;
70213;SDS011;60138;55.808;37.078;2023-07-30T14:06:14;3.40;;;1.10;;
70213;SDS011;60138;55.808;37.078;2023-07-30T14:08:40;26.10;;;6.75;;
70213;SDS011;60138;55.808;37.078;2023-07-30T14:11:05;10.10;;;2.87;;
70213;SDS011;60138;55.808;37.078;2023-07-30T14:13:34;5.05;;;1.48;;
70213;SDS011;60138;55.808;37.078;2023-07-30T14:15:59;3.50;;;1.20;;
70213;SDS011;60138;55.808;37.078;2023-07-30T14:18:25;4.63;;;1.30;;
70213;SDS011;60138;55.808;37.078;2023-07-30T14:20:51;5.38;;;1.40;;
70213;SDS011;60138;55.808;37.078;2023-07-30T14:23:17;4.63;;;1.10;;
70213;SDS011;60138;55.808;37.078;2023-07-30T14:25:44;3.47;;;1.30;;
70213;SDS011;60138;55.808;37.078;2023-07-30T14:28:10;4.75;;;2.03;;